Latest Weather Observations for Strathalbyn

IDS60901

Issued at 11:31 pm CST Tuesday 1 September 2015 (issued every 10 minutes, with the page automatically refreshed every 10 minutes)

About weather observations | Map of Adelaide area stations | Latest observations for Adelaide area | Other Formats
Station Details ID: 024580 Name: STRATHALBYN RACECOURSE Lat: -35.28 Lon: 138.89 Height: 58.0 m
Data from the previous 72 hours. | See also: Recent months at Strathalbyn
Date/Time
CST
Tmp

°C
App
Tmp
°C
Dew
Point
°C
Rel
Hum
%
Delta-T

°C
Wind Press
QNH
hPa
Press
MSL
hPa
Rain
since
9 am
mm
Dir
 
Spd
km/h
Gust
km/h
Spd
kts
Gust
kts
01/11:30pm 13.6 10.1 7.4 66 3.0 N 15 20 8 11 1006.9 - 0.0
01/11:00pm 14.0 10.3 4.6 53 4.4 NNE 13 19 7 10 1007.2 - 0.0
01/10:30pm 13.8 9.5 3.3 49 4.7 NNE 15 20 8 11 1007.2 - 0.0
01/10:00pm 14.6 8.7 1.8 42 5.6 NNE 22 28 12 15 1007.0 - 0.0
01/09:30pm 14.2 9.4 2.5 45 5.2 N 17 28 9 15 1007.5 - 0.0
01/09:00pm 14.0 8.7 3.2 48 4.9 NNE 20 26 11 14 1007.5 1007.5 0.0
01/08:30pm 13.5 9.2 5.4 58 3.8 NNE 17 24 9 13 1007.5 - 0.0
01/08:00pm 13.0 10.2 7.0 67 2.9 N 11 13 6 7 1007.7 - 0.0
01/07:30pm 13.4 10.9 6.7 64 3.2 N 9 11 5 6 1007.6 - 0.0
01/07:00pm 14.2 11.4 6.8 61 3.6 N 11 13 6 7 1007.5 - 0.0
01/06:30pm 14.6 12.2 6.9 60 3.8 NNE 9 11 5 6 1007.7 - 0.0
01/06:00pm 14.6 12.3 7.4 62 3.6 NE 9 9 5 5 1007.9 1007.9 0.0
01/05:30pm 15.6 13.4 6.3 54 4.5 N 7 11 4 6 1007.9 - 0.0
01/05:00pm 16.4 13.2 5.1 47 5.4 N 11 17 6 9 1007.9 - 0.0
01/04:30pm 17.1 13.7 5.7 47 5.5 N 13 19 7 10 1008.1 - 0.0
01/04:00pm 17.4 13.4 5.0 44 5.9 N 15 22 8 12 1008.3 - 0.0
01/03:30pm 17.8 14.5 4.7 42 6.3 NNW 11 17 6 9 1008.6 - 0.0
01/03:00pm 18.3 13.9 4.5 40 6.6 NW 17 28 9 15 1009.0 1009.0 0.0
01/02:30pm 18.5 14.5 5.0 41 6.5 N 15 24 8 13 1009.3 - 0.0
01/02:00pm 18.3 14.1 5.5 43 6.2 N 17 24 9 13 1009.2 - 0.0
01/01:30pm 17.3 13.9 10.4 64 3.7 ENE 19 22 10 12 1009.6 - 0.0
01/01:00pm 17.2 14.2 9.1 59 4.2 ENE 15 20 8 11 1010.0 - 0.0
01/12:30pm 16.8 14.6 10.9 68 3.2 ENE 13 15 7 8 1010.6 - 0.0
01/12:00pm 17.2 14.9 10.3 64 3.7 NE 13 17 7 9 1011.2 1011.2 0.0
01/11:30am 17.6 14.4 8.5 55 4.7 NE 15 20 8 11 1011.5 - 0.0
01/11:00am 17.6 13.8 7.6 52 5.1 NNE 17 20 9 11 1012.0 - 0.0
01/10:30am 16.3 13.1 8.5 60 4.0 NE 15 20 8 11 1012.4 - 0.0
01/10:00am 15.5 12.1 7.8 60 3.9 NNE 15 19 8 10 1012.9 - 0.0
01/09:30am 15.0 12.5 8.3 64 3.4 NNE 11 15 6 8 1012.9 - 0.0
01/09:00am 12.4 12.1 8.7 78 1.8 CALM 0 0 0 0 1013.1 1013.1 0.0
01/08:30am 11.6 11.0 7.3 75 2.1 CALM 0 0 0 0 1013.4 - 0.0
01/08:00am 10.9 8.0 6.5 74 2.1 N 11 15 6 8 1013.6 - 0.0
01/07:30am 9.5 7.1 6.9 84 1.2 NNW 9 11 5 6 1013.3 - 0.0
01/07:00am 8.3 5.7 5.9 85 1.1 NNW 9 13 5 7 1013.1 - 0.0
01/06:30am 7.4 5.0 4.5 82 1.3 NNW 6 7 3 4 1012.6 - 0.0
01/06:00am 8.5 4.5 4.7 77 1.7 NNW 15 19 8 10 1012.6 1012.6 0.0
01/05:30am 7.5 3.4 4.3 80 1.4 N 15 15 8 8 1012.6 - 0.0
01/05:00am 5.1 2.4 2.5 83 1.1 N 6 7 3 4 1012.9 - 0.0
01/04:30am 5.9 2.7 3.2 83 1.1 N 9 11 5 6 1013.0 - 0.0
01/04:00am 5.9 2.4 3.4 84 1.0 N 11 13 6 7 1013.1 - 0.0
01/03:30am 6.1 1.8 3.4 83 1.1 N 15 15 8 8 1013.3 - 0.0
01/03:00am 6.3 3.6 3.8 84 1.1 N 7 13 4 7 1013.7 1013.7 0.0
01/02:30am 6.3 2.9 3.8 84 1.1 N 11 13 6 7 1014.4 - 0.0
01/02:00am 6.3 3.8 3.5 82 1.2 N 6 9 3 5 1014.9 - 0.0
01/01:30am 7.2 4.6 4.0 80 1.4 N 7 9 4 5 1015.1 - 0.0
01/01:00am 6.7 2.9 3.9 82 1.2 NNW 13 15 7 8 1015.4 - 0.0
01/12:30am 6.1 2.1 3.1 81 1.3 NNW 13 15 7 8 1015.7 - 0.0
01/12:00am 7.1 3.2 3.3 77 1.6 N 13 15 7 8 1016.0 1016.1 0.0
 
Date/Time
CST
Tmp

°C
App
Tmp
°C
Dew
Point
°C
Rel
Hum
%
Delta-T

°C
Wind Press
QNH
hPa
Press
MSL
hPa
Rain
since
9 am
mm
Dir
 
Spd
km/h
Gust
km/h
Spd
kts
Gust
kts
31/11:30pm 7.4 3.5 3.6 77 1.6 N 13 15 7 8 1016.5 - 0.0
31/11:00pm 6.7 2.9 3.9 82 1.2 NNW 13 15 7 8 1016.7 - 0.0
31/10:30pm 6.5 2.5 2.9 78 1.5 NNW 13 15 7 8 1017.1 - 0.0
31/10:00pm 7.2 3.5 4.3 82 1.3 NNW 13 15 7 8 1017.3 - 0.0
31/09:30pm 6.9 3.1 3.7 80 1.4 NNW 13 17 7 9 1017.5 - 0.0
31/09:00pm 7.3 3.2 4.3 81 1.3 NW 15 17 8 9 1017.6 1017.7 0.0
31/08:30pm 7.7 3.6 4.3 79 1.5 NW 15 17 8 9 1017.7 - 0.0
31/08:00pm 8.6 5.0 5.2 79 1.5 NNW 13 17 7 9 1017.6 - 0.0
31/07:30pm 7.8 5.6 5.1 83 1.2 ESE 6 11 3 6 1017.5 - 0.0
31/07:00pm 9.0 6.4 4.4 73 2.0 ESE 7 7 4 4 1017.4 - 0.0
31/06:30pm 10.9 8.9 4.6 65 2.8 ESE 4 7 2 4 1017.0 - 0.0
31/06:00pm 13.0 10.7 5.7 61 3.4 ESE 7 11 4 6 1016.8 1016.9 0.0
31/05:30pm 13.7 11.4 7.5 66 3.0 ESE 9 11 5 6 1017.0 - 0.0
31/05:00pm 15.6 13.4 7.9 60 3.9 ESE 9 11 5 6 1017.0 - 0.0
31/04:30pm 16.7 14.0 5.6 48 5.4 ESE 9 13 5 7 1016.9 - 0.0
31/04:00pm 16.9 14.4 6.4 50 5.2 SE 9 13 5 7 1017.0 - 0.0
31/03:30pm 16.8 13.3 5.4 47 5.5 SE 13 17 7 9 1017.1 - 0.0
31/03:00pm 17.0 13.2 5.9 48 5.4 SSE 15 19 8 10 1017.5 1017.6 0.0
31/02:30pm 17.3 13.7 6.8 50 5.2 SE 15 24 8 13 1017.5 - 0.0
31/02:00pm 18.6 16.0 6.1 44 6.2 WSW 9 15 5 8 1017.8 - 0.0
31/01:30pm 18.0 15.2 5.2 43 6.2 S 9 20 5 11 1018.0 - 0.0
31/01:00pm 18.0 15.7 5.9 45 5.9 S 7 15 4 8 1018.4 - 0.0
31/12:30pm 17.2 15.1 5.8 47 5.6 S 6 15 3 8 1019.0 - 0.0
31/12:00pm 17.0 15.1 7.4 53 4.8 NNW 7 11 4 6 1019.4 1019.5 0.0
31/11:30am 16.6 14.8 7.8 56 4.4 NNW 7 9 4 5 1019.9 - 0.0
31/11:00am 15.0 13.2 7.1 59 3.9 NNW 6 9 3 5 1020.3 - 0.0
31/10:30am 13.7 11.9 7.2 65 3.2 NNW 6 9 3 5 1020.5 - 0.0
31/10:00am 12.7 10.8 5.1 60 3.5 NNW 4 7 2 4 1020.8 - 0.0
31/09:30am 10.9 8.2 3.7 61 3.2 NNW 7 9 4 5 1021.1 - 0.0
31/09:00am 9.5 7.2 4.7 72 2.1 NNW 6 7 3 4 1021.1 1021.1 0.0
31/08:30am 8.0 6.7 4.0 76 1.7 CALM 0 0 0 0 1021.1 - 0.0
31/08:00am 5.8 4.5 4.0 88 0.8 CALM 0 0 0 0 1021.2 - 0.0
31/07:30am 2.9 0.4 1.3 89 0.6 NNW 4 7 2 4 1021.2 - 0.0
31/07:00am 1.3 -2.4 -0.3 89 0.6 NNW 9 11 5 6 1021.1 - 0.0
31/06:30am 1.3 -2.4 -0.3 89 0.6 NNW 9 11 5 6 1021.0 - 0.0
31/06:00am 1.6 -2.5 0.0 89 0.6 NNW 11 13 6 7 1021.1 1021.1 0.0
31/05:30am 1.7 -1.6 0.1 89 0.6 NNW 7 9 4 5 1021.1 - 0.0
31/05:00am 1.9 -1.7 0.6 91 0.5 NNW 9 11 5 6 1021.1 - 0.0
31/04:30am 0.8 -2.4 -0.6 90 0.5 NNW 6 6 3 3 1021.2 - 0.0
31/04:00am 1.5 -1.6 -0.1 89 0.6 NNW 6 7 3 4 1021.3 - 0.0
31/03:30am 1.5 -1.3 -0.1 89 0.6 NNW 4 9 2 5 1021.4 - 0.0
31/03:00am 2.4 -0.6 0.8 89 0.6 NNW 6 7 3 4 1021.6 1021.6 0.0
31/02:30am 2.2 -1.1 0.4 88 0.7 NNW 7 7 4 4 1021.8 - 0.0
31/02:00am 2.9 -0.6 1.3 89 0.6 NNW 9 11 5 6 1022.1 - 0.0
31/01:30am 3.3 0.3 1.7 89 0.6 NNW 7 11 4 6 1022.6 - 0.0
31/01:00am 3.3 -0.9 1.7 89 0.6 NNW 13 15 7 8 1022.9 - 0.0
31/12:30am 3.4 -0.8 1.6 88 0.7 NW 13 15 7 8 1022.8 - 0.0
31/12:00am 4.4 -0.1 2.4 87 0.8 NW 15 17 8 9 1022.9 1022.9 0.0
 
Date/Time
CST
Tmp

°C
App
Tmp
°C
Dew
Point
°C
Rel
Hum
%
Delta-T

°C
Wind Press
QNH
hPa
Press
MSL
hPa
Rain
since
9 am
mm
Dir
 
Spd
km/h
Gust
km/h
Spd
kts
Gust
kts
30/11:30pm 4.2 -0.2 2.6 89 0.6 NW 15 17 8 9 1023.1 - 0.0
30/11:00pm 3.9 0.5 2.1 88 0.7 NNW 9 13 5 7 1023.4 - 0.0
30/10:30pm 4.7 0.7 3.0 89 0.7 NW 13 17 7 9 1023.7 - 0.0
30/10:00pm 4.3 0.6 2.5 88 0.7 NW 11 13 6 7 1023.7 - 0.0
30/09:30pm 4.9 0.9 3.1 88 0.7 WSW 13 13 7 7 1023.9 - 0.0
30/09:00pm 5.0 2.2 2.9 86 0.9 SW 7 11 4 6 1024.1 1024.1 0.0
30/08:30pm 6.0 3.1 2.8 80 1.3 SW 7 9 4 5 1023.9 - 0.0
30/08:00pm 7.6 5.0 4.0 78 1.6 SW 7 9 4 5 1023.8 - 0.0
30/07:30pm 8.7 5.4 4.5 75 1.9 SW 11 13 6 7 1023.8 - 0.0
30/07:00pm 9.2 5.9 4.6 73 2.0 WSW 11 15 6 8 1023.6 - 0.0
30/06:30pm 9.6 6.4 5.0 73 2.1 WSW 11 13 6 7 1023.5 - 0.0
30/06:00pm 10.2 7.4 5.0 70 2.3 SSW 9 11 5 6 1023.2 1023.2 0.0
30/05:30pm 11.0 7.9 5.5 69 2.5 SW 11 13 6 7 1023.1 - 0.0
30/05:00pm 12.1 8.5 5.0 62 3.3 SE 13 17 7 9 1022.7 - 0.0
30/04:30pm 13.4 9.1 5.1 57 3.9 SE 17 24 9 13 1022.5 - 0.0
30/04:00pm 14.7 11.8 4.4 50 4.8 E 9 15 5 8 1022.6 - 0.0
30/03:30pm 14.7 11.3 3.8 48 5.0 NE 11 19 6 10 1022.8 - 0.0
30/03:00pm 14.2 10.8 4.2 51 4.6 E 11 19 6 10 1022.9 1022.9 0.0
30/02:30pm 14.1 10.6 3.3 48 4.9 ENE 11 20 6 11 1023.4 - 0.0
30/02:00pm 13.9 10.1 3.7 50 4.6 NE 13 19 7 10 1023.7 - 0.0
30/01:30pm 14.0 10.9 5.4 56 4.1 ENE 11 19 6 10 1024.0 - 0.0
30/01:00pm 13.7 10.4 2.6 47 4.9 E 9 15 5 8 1024.6 - 0.0
30/12:30pm 13.7 10.1 5.1 56 4.0 NNE 13 20 7 11 1025.2 - 0.0
30/12:00pm 12.9 8.8 4.1 55 4.0 NE 15 20 8 11 1025.7 1025.7 0.0
30/11:30am 12.1 7.9 3.6 56 3.8 NE 15 20 8 11 1026.0 - 0.0
30/11:00am 11.5 7.4 4.3 61 3.2 NE 15 26 8 14 1026.4 - 0.0
30/10:30am 10.4 5.6 4.8 68 2.5 NE 19 24 10 13 1026.8 - 0.0
30/10:00am 9.9 5.1 4.9 71 2.3 NE 19 22 10 12 1027.0 - 0.0
30/09:30am 9.0 4.9 4.2 72 2.1 NE 15 20 8 11 1027.2 - 0.0
30/09:00am 8.0 3.8 3.7 74 1.8 NE 15 20 8 11 1027.4 1027.4 0.0
30/08:30am 7.1 3.2 3.5 78 1.5 NNE 13 17 7 9 1027.6 - 0.0
30/08:00am 5.4 2.2 2.9 84 1.0 N 9 11 5 6 1027.6 - 0.0
30/07:30am 3.4 -0.4 1.6 88 0.7 N 11 13 6 7 1027.5 - 0.0
30/07:00am 1.7 -2.4 0.1 89 0.6 N 11 13 6 7 1027.3 - 0.0
30/06:30am 1.4 -2.7 -0.2 89 0.6 N 11 13 6 7 1027.0 - 0.0
30/06:00am 1.9 -1.8 0.0 87 0.7 N 9 11 5 6 1026.6 1026.6 0.0
30/05:30am 1.9 -1.8 0.0 87 0.7 N 9 11 5 6 1026.5 - 0.0
30/05:00am 3.0 -0.6 0.7 85 0.9 N 9 11 5 6 1026.4 - 0.0
30/04:30am 3.7 0.2 1.3 84 0.9 N 9 13 5 7 1026.4 - 0.0
30/04:00am 4.3 0.5 1.7 83 1.0 N 11 13 6 7 1026.5 - 0.0
30/03:30am 4.0 0.2 1.9 86 0.8 NNW 11 13 6 7 1026.8 - 0.0
30/03:00am 3.6 -0.4 0.7 81 1.1 NNW 11 13 6 7 1026.9 1026.9 0.0
30/02:30am 3.7 0.7 1.1 83 1.0 N 6 9 3 5 1027.3 - 0.0
30/02:00am 4.1 0.3 1.5 83 1.0 N 11 13 6 7 1027.5 - 0.0
30/01:30am 3.2 -1.4 1.4 88 0.7 NNW 15 17 8 9 1027.9 - 0.0
30/01:00am 3.6 -0.6 1.8 88 0.7 NNW 13 15 7 8 1028.0 - 0.0
30/12:30am 3.4 -0.1 1.4 87 0.8 NNW 9 9 5 5 1028.0 - 0.0
30/12:00am 4.1 1.1 2.1 87 0.8 NNW 7 9 4 5 1027.9 1027.9 0.0

Latest Capital City Observations: Canberra | Sydney | Melbourne | Brisbane | Adelaide | Perth | Hobart | Darwin

Other Formats:

Comma delimited format used in spreadsheet applications
http://www.bom.gov.au/fwo/IDS60901/IDS60901.94814.axf

JavaScript Object Notation format (JSON) in row-major order
http://www.bom.gov.au/fwo/IDS60901/IDS60901.94814.json